Time,TemperatureF,DewpointF,PressureIn,WindDirection,WindDirectionDegrees,WindSpeedMPH,WindSpeedGustMPH,Humidity,HourlyPrecipIn,Conditions,Clouds,dailyrainin,SolarRadiationWatts/m^2,SoftwareType,DateUTC
2013-03-03 00:00:00,20.0,14.0,-100.00,SE,135,1.0,-999.0,77,-99.99,,,-99.99,0.000000,,2013-03-03 05:00:00,
2013-03-03 00:42:00,20.0,14.0,-100.00,SE,135,1.0,-999.0,77,-99.99,,,-99.99,0.000000,,2013-03-03 05:42:00,
2013-03-03 00:52:00,20.0,14.0,-100.00,SE,135,1.0,-999.0,77,-99.99,,,-99.99,0.000000,,2013-03-03 05:52:00,
2013-03-03 01:00:00,17.0,13.0,-100.00,SW,225,0.0,-999.0,86,-99.99,,,-99.99,0.000000,,2013-03-03 06:00:00,
2013-03-03 01:32:00,17.0,13.0,-100.00,SW,225,0.0,-999.0,86,-99.99,,,-99.99,0.000000,,2013-03-03 06:32:00,
2013-03-03 01:42:00,17.0,13.0,-100.00,SW,225,0.0,-999.0,86,-99.99,,,-99.99,0.000000,,2013-03-03 06:42:00,
2013-03-03 01:52:00,17.0,13.0,-100.00,SW,225,0.0,-999.0,86,-99.99,,,-99.99,0.000000,,2013-03-03 06:52:00,
2013-03-03 02:00:00,14.0,14.0,-100.00,NNW,337,0.0,-999.0,98,-99.99,,,-99.99,0.000000,,2013-03-03 07:00:00,
2013-03-03 02:42:00,14.0,14.0,-100.00,NNW,337,0.0,-999.0,98,-99.99,,,-99.99,0.000000,,2013-03-03 07:42:00,
2013-03-03 02:52:00,14.0,14.0,-100.00,NNW,337,0.0,-999.0,98,-99.99,,,-99.99,0.000000,,2013-03-03 07:52:00,
2013-03-03 03:00:00,12.0,12.0,-100.00,NNW,337,0.0,-999.0,101,-99.99,,,-99.99,0.000000,,2013-03-03 08:00:00,
2013-03-03 03:42:00,12.0,12.0,-100.00,NNW,337,0.0,-999.0,101,-99.99,,,-99.99,0.000000,,2013-03-03 08:42:00,
2013-03-03 03:54:00,12.0,12.0,-100.00,NNW,337,0.0,-999.0,101,-99.99,,,-99.99,0.000000,,2013-03-03 08:54:00,
2013-03-03 04:00:00,11.0,11.0,-100.00,NNW,337,0.0,-999.0,102,-99.99,,,-99.99,0.000000,,2013-03-03 09:00:00,
2013-03-03 04:42:00,11.0,11.0,-100.00,NNW,337,0.0,-999.0,102,-99.99,,,-99.99,0.000000,,2013-03-03 09:42:00,
2013-03-03 04:52:00,11.0,11.0,-100.00,NNW,337,0.0,-999.0,102,-99.99,,,-99.99,0.000000,,2013-03-03 09:52:00,
2013-03-03 05:00:00,11.0,11.0,-100.00,NNW,337,0.0,-999.0,102,-99.99,,,-99.99,0.000000,,2013-03-03 10:00:00,
2013-03-03 05:42:00,11.0,11.0,-100.00,NNW,337,0.0,-999.0,102,-99.99,,,-99.99,0.000000,,2013-03-03 10:42:00,
2013-03-03 05:52:00,11.0,11.0,-100.00,NNW,337,0.0,-999.0,102,-99.99,,,-99.99,0.000000,,2013-03-03 10:52:00,
2013-03-03 06:00:00,10.0,10.0,-100.00,NNW,337,0.0,-999.0,102,-99.99,,,-99.99,0.000000,,2013-03-03 11:00:00,
2013-03-03 06:42:00,10.0,10.0,-100.00,NNW,337,0.0,-999.0,102,-99.99,,,-99.99,0.000000,,2013-03-03 11:42:00,
2013-03-03 06:53:00,10.0,10.0,-100.00,NNW,337,0.0,-999.0,102,-99.99,,,-99.99,0.000000,,2013-03-03 11:53:00,
2013-03-03 07:00:00,10.0,10.0,-100.00,NNW,337,0.0,-999.0,102,-99.99,,,-99.99,0.000000,,2013-03-03 12:00:00,
2013-03-03 07:43:00,10.0,10.0,-100.00,NNW,337,0.0,-999.0,102,-99.99,,,-99.99,0.000000,,2013-03-03 12:43:00,
2013-03-03 07:53:00,10.0,10.0,-100.00,NNW,337,0.0,-999.0,102,-99.99,,,-99.99,0.000000,,2013-03-03 12:53:00,
2013-03-03 08:00:00,11.0,11.0,-100.00,NNW,337,0.0,-999.0,101,-99.99,,,-99.99,27.840000,,2013-03-03 13:00:00,
2013-03-03 08:42:00,11.0,11.0,-100.00,NNW,337,0.0,-999.0,101,-99.99,,,-99.99,27.840000,,2013-03-03 13:42:00,
2013-03-03 08:52:00,11.0,11.0,-100.00,NNW,337,0.0,-999.0,101,-99.99,,,-99.99,27.840000,,2013-03-03 13:52:00,
2013-03-03 09:00:00,16.0,15.0,-100.00,NNW,337,0.0,-999.0,97,-99.99,,,-99.99,136.880005,,2013-03-03 14:00:00,
2013-03-03 09:42:00,16.0,15.0,-100.00,NNW,337,0.0,-999.0,97,-99.99,,,-99.99,136.880005,,2013-03-03 14:42:00,
2013-03-03 09:52:00,16.0,15.0,-100.00,NNW,337,0.0,-999.0,97,-99.99,,,-99.99,136.880005,,2013-03-03 14:52:00,
2013-03-03 10:00:00,19.0,17.0,-100.00,NNW,337,1.0,-999.0,88,-99.99,,,-99.99,272.600006,,2013-03-03 15:00:00,
2013-03-03 10:42:00,19.0,17.0,-100.00,NNW,337,1.0,-999.0,88,-99.99,,,-99.99,272.600006,,2013-03-03 15:42:00,
2013-03-03 10:52:00,19.0,17.0,-100.00,NNW,337,1.0,-999.0,88,-99.99,,,-99.99,272.600006,,2013-03-03 15:52:00,
2013-03-03 11:00:00,25.0,15.0,-100.00,West,270,2.0,-999.0,65,-99.99,,,-99.99,482.559998,,2013-03-03 16:00:00,
2013-03-03 11:42:00,25.0,15.0,-100.00,West,270,2.0,-999.0,65,-99.99,,,-99.99,482.559998,,2013-03-03 16:42:00,
2013-03-03 11:52:00,25.0,15.0,-100.00,West,270,2.0,-999.0,65,-99.99,,,-99.99,482.559998,,2013-03-03 16:52:00,
2013-03-03 12:00:00,27.0,14.0,-100.00,WNW,292,6.0,-999.0,58,-99.99,,,-99.99,518.520020,,2013-03-03 17:00:00,
2013-03-03 12:42:00,27.0,14.0,-100.00,WNW,292,6.0,-999.0,58,-99.99,,,-99.99,518.520020,,2013-03-03 17:42:00,
2013-03-03 12:52:00,27.0,14.0,-100.00,WNW,292,6.0,-999.0,58,-99.99,,,-99.99,518.520020,,2013-03-03 17:52:00,
2013-03-03 13:00:00,29.0,15.0,-100.00,WNW,292,6.0,-999.0,53,-99.99,,,-99.99,560.280029,,2013-03-03 18:00:00,
2013-03-03 13:42:00,29.0,15.0,-100.00,WNW,292,6.0,-999.0,53,-99.99,,,-99.99,560.280029,,2013-03-03 18:42:00,
2013-03-03 13:53:00,29.0,15.0,-100.00,WNW,292,6.0,-999.0,53,-99.99,,,-99.99,560.280029,,2013-03-03 18:53:00,
2013-03-03 14:00:00,29.0,16.0,-100.00,WNW,292,9.0,-999.0,57,-99.99,,,-99.99,603.200012,,2013-03-03 19:00:00,
2013-03-03 14:42:00,29.0,16.0,-100.00,WNW,292,9.0,-999.0,57,-99.99,,,-99.99,603.200012,,2013-03-03 19:42:00,
2013-03-03 14:52:00,29.0,16.0,-100.00,WNW,292,9.0,-999.0,57,-99.99,,,-99.99,603.200012,,2013-03-03 19:52:00,
2013-03-03 15:00:00,29.0,17.0,-100.00,WNW,292,10.0,-999.0,59,-99.99,,,-99.99,612.479980,,2013-03-03 20:00:00,
2013-03-03 15:43:00,29.0,17.0,-100.00,WNW,292,10.0,-999.0,59,-99.99,,,-99.99,612.479980,,2013-03-03 20:43:00,
2013-03-03 15:53:00,29.0,17.0,-100.00,WNW,292,10.0,-999.0,59,-99.99,,,-99.99,612.479980,,2013-03-03 20:53:00,
2013-03-03 16:00:00,29.0,17.0,-100.00,WNW,292,12.0,-999.0,61,-99.99,,,-99.99,502.279999,,2013-03-03 21:00:00,
2013-03-03 16:42:00,29.0,17.0,-100.00,WNW,292,12.0,-999.0,61,-99.99,,,-99.99,502.279999,,2013-03-03 21:42:00,
2013-03-03 16:52:00,29.0,17.0,-100.00,WNW,292,12.0,-999.0,61,-99.99,,,-99.99,502.279999,,2013-03-03 21:52:00,
2013-03-03 17:00:00,29.0,17.0,-100.00,WNW,292,11.0,-999.0,61,-99.99,,,-99.99,330.600006,,2013-03-03 22:00:00,
2013-03-03 17:32:00,29.0,17.0,-100.00,WNW,292,11.0,-999.0,61,-99.99,,,-99.99,330.600006,,2013-03-03 22:32:00,
2013-03-03 17:42:00,29.0,17.0,-100.00,WNW,292,11.0,-999.0,61,-99.99,,,-99.99,330.600006,,2013-03-03 22:42:00,
2013-03-03 17:53:00,29.0,17.0,-100.00,WNW,292,11.0,-999.0,61,-99.99,,,-99.99,330.600006,,2013-03-03 22:53:00,
2013-03-03 18:00:00,27.0,17.0,-100.00,WNW,292,10.0,-999.0,63,-99.99,,,-99.99,150.800003,,2013-03-03 23:00:00,
2013-03-03 18:42:00,27.0,17.0,-100.00,WNW,292,10.0,-999.0,63,-99.99,,,-99.99,150.800003,,2013-03-03 23:42:00,
2013-03-03 18:52:00,27.0,17.0,-100.00,WNW,292,10.0,-999.0,63,-99.99,,,-99.99,150.800003,,2013-03-03 23:52:00,
2013-03-03 19:00:00,25.0,16.0,-100.00,WNW,292,10.0,-999.0,68,-99.99,,,-99.99,16.240000,,2013-03-04 00:00:00,
2013-03-03 19:32:00,25.0,16.0,-100.00,WNW,292,10.0,-999.0,68,-99.99,,,-99.99,16.240000,,2013-03-04 00:32:00,
2013-03-03 19:42:00,25.0,16.0,-100.00,WNW,292,10.0,-999.0,68,-99.99,,,-99.99,16.240000,,2013-03-04 00:42:00,
2013-03-03 19:52:00,25.0,16.0,-100.00,WNW,292,10.0,-999.0,68,-99.99,,,-99.99,16.240000,,2013-03-04 00:52:00,
2013-03-03 20:00:00,23.0,15.0,-100.00,WNW,292,7.0,-999.0,71,-99.99,,,-99.99,0.000000,,2013-03-04 01:00:00,
2013-03-03 20:32:00,23.0,15.0,-100.00,WNW,292,7.0,-999.0,71,-99.99,,,-99.99,0.000000,,2013-03-04 01:32:00,
2013-03-03 20:42:00,23.0,15.0,-100.00,WNW,292,7.0,-999.0,71,-99.99,,,-99.99,0.000000,,2013-03-04 01:42:00,
2013-03-03 20:52:00,23.0,15.0,-100.00,WNW,292,7.0,-999.0,71,-99.99,,,-99.99,0.000000,,2013-03-04 01:52:00,
2013-03-03 21:00:00,20.0,14.0,-100.00,WNW,292,4.0,-999.0,75,-99.99,,,-99.99,0.000000,,2013-03-04 02:00:00,
2013-03-03 21:42:00,20.0,14.0,-100.00,WNW,292,4.0,-999.0,75,-99.99,,,-99.99,0.000000,,2013-03-04 02:42:00,
2013-03-03 21:53:00,20.0,14.0,-100.00,WNW,292,4.0,-999.0,75,-99.99,,,-99.99,0.000000,,2013-03-04 02:53:00,
2013-03-03 23:00:00,17.0,14.0,-100.00,WNW,292,0.0,-999.0,88,-99.99,,,-99.99,0.000000,,2013-03-04 04:00:00,
2013-03-03 23:32:00,17.0,14.0,-100.00,WNW,292,0.0,-999.0,88,-99.99,,,-99.99,0.000000,,2013-03-04 04:32:00,
2013-03-03 23:42:00,17.0,14.0,-100.00,WNW,292,0.0,-999.0,88,-99.99,,,-99.99,0.000000,,2013-03-04 04:42:00,
2013-03-03 23:52:00,17.0,14.0,-100.00,WNW,292,0.0,-999.0,88,-99.99,,,-99.99,0.000000,,2013-03-04 04:52:00,